»·PEaware :: N203ES KSBP-KSBP

N203ES :: KSBP-KSBP

FLIGHT INFORMATION

Flight Status: Arrived
Operator: Privately registered:
United States
More flights under this callsign
Pilot: Anonymous 17564 (17564)
Aircraft: PIPER PA-31T-620 CHEYENNE 2
(PAY2)
More flights by this aircraft type
Origin: KSBP San Luis Co Regl
United States
Destination: KSBP San Luis Co Regl
United States
More flights between these airports :: More routes between these airports
Route: +
File this flight plan on PilotEdge
Remarks:
Altitude:
(Current/Filed)
0ft
Speed:
(Current/Filed)
0kts
Departed: 23-Dec-17 08:43 AM
Arrived: 23-Dec-17 11:18 AM
Distance/Time
Traveled:
0nm/2:35
Distance/Time
To Go:
Arrived

Flight Plot

Page will automatically refresh every two minutes.


Map Options




Map Legend


Flown Route
Filed Route
Departure Airport
Arrival Airport
Navaid (VOR, NDB)
Fix

Horizontal Profiles

Position Reports

Time Latitude Longitude Heading Altitude Ground
Speed
23-Dec-17 08:48 35.232921 -120.633246 306 216ft 0kts
23-Dec-17 08:49 35.245648 -120.659651 300 1113ft 163kts
23-Dec-17 08:50 35.275679 -120.715431 302 1911ft 203kts
23-Dec-17 08:51 35.309491 -120.770611 324 2914ft 203kts
23-Dec-17 08:52 35.341202 -120.822900 297 3917ft 188kts
23-Dec-17 08:53 35.376375 -120.863299 10 5060ft 202kts
23-Dec-17 08:54 35.405863 -120.802619 66 6598ft 225kts
23-Dec-17 08:55 35.429006 -120.730504 62 8087ft 214kts
23-Dec-17 08:56 35.449444 -120.671535 61 8882ft 178kts
23-Dec-17 08:57 35.497076 -120.644394 358 9258ft 221kts
23-Dec-17 08:58 35.557588 -120.663074 327 9770ft 230kts
23-Dec-17 08:59 35.615531 -120.685863 26 10268ft 250kts
23-Dec-17 09:00 35.627199 -120.605168 87 10789ft 263kts
23-Dec-17 09:01 35.633970 -120.515134 85 11367ft 263kts
23-Dec-17 09:02 35.636503 -120.426561 86 12856ft 254kts
23-Dec-17 09:03 35.638772 -120.336600 87 13499ft 281kts
23-Dec-17 09:04 35.641167 -120.236737 87 13497ft 300kts
23-Dec-17 09:05 35.643577 -120.132776 87 13496ft 306kts
23-Dec-17 09:06 35.645915 -120.027957 87 13489ft 307kts
23-Dec-17 09:07 35.637279 -119.923840 103 13481ft 307kts
23-Dec-17 09:08 35.618573 -119.821365 103 13474ft 307kts
23-Dec-17 09:09 35.599871 -119.718796 103 13471ft 308kts
23-Dec-17 09:10 35.581000 -119.615749 103 13469ft 309kts
23-Dec-17 09:11 35.562086 -119.513109 103 13468ft 308kts
23-Dec-17 09:12 35.543634 -119.413044 103 13467ft 308kts
23-Dec-17 09:13 35.524565 -119.310344 103 13467ft 307kts
23-Dec-17 09:14 35.510562 -119.209707 81 13470ft 306kts
23-Dec-17 09:15 35.556068 -119.129806 21 13470ft 283kts
23-Dec-17 09:16 35.629194 -119.122870 344 13468ft 263kts
23-Dec-17 09:17 35.701668 -119.135458 345 13466ft 263kts
23-Dec-17 09:18 35.774513 -119.148245 345 13465ft 264kts
23-Dec-17 09:19 35.847223 -119.161046 345 13465ft 264kts
23-Dec-17 09:20 35.919847 -119.173874 344 13466ft 264kts
23-Dec-17 09:21 35.992995 -119.186877 345 13465ft 265kts
23-Dec-17 09:22 36.066079 -119.199884 344 13465ft 266kts
23-Dec-17 09:23 36.139620 -119.212949 344 13463ft 266kts
23-Dec-17 09:24 36.212852 -119.225970 344 13460ft 266kts
23-Dec-17 09:25 36.286034 -119.239041 344 13458ft 266kts
23-Dec-17 09:26 36.359505 -119.252173 343 13457ft 266kts
23-Dec-17 09:27 36.432699 -119.265233 344 13458ft 266kts
23-Dec-17 09:28 36.506397 -119.278474 344 13458ft 269kts
23-Dec-17 09:29 36.581055 -119.291895 343 13457ft 271kts
23-Dec-17 09:30 36.654207 -119.305064 343 12787ft 259kts
23-Dec-17 09:31 36.725118 -119.317887 344 11784ft 253kts
23-Dec-17 09:32 36.789663 -119.329463 343 11455ft 216kts
23-Dec-17 09:33 36.847274 -119.339994 343 11565ft 206kts
23-Dec-17 09:34 36.904825 -119.350503 343 11576ft 210kts
23-Dec-17 09:35 36.962756 -119.361028 343 11574ft 211kts
23-Dec-17 09:36 37.020958 -119.371618 343 11570ft 212kts
23-Dec-17 09:37 37.079634 -119.382358 343 11567ft 213kts
23-Dec-17 09:38 37.138427 -119.393073 342 11564ft 214kts
23-Dec-17 09:39 37.193183 -119.355355 41 11896ft 266kts
23-Dec-17 09:40 37.248516 -119.289611 37 12395ft 278kts
23-Dec-17 09:41 37.305885 -119.221320 37 12537ft 291kts
23-Dec-17 09:42 37.366548 -119.152549 18 12521ft 287kts
23-Dec-17 09:43 37.435626 -119.100495 27 12510ft 294kts
23-Dec-17 09:44 37.504642 -119.045240 24 12503ft 294kts
23-Dec-17 09:45 37.574664 -118.990637 24 12495ft 297kts
23-Dec-17 09:46 37.642767 -118.937413 24 11684ft 273kts
23-Dec-17 09:47 37.704531 -118.889113 26 11002ft 241kts
23-Dec-17 09:48 37.756253 -118.848617 24 10988ft 202kts
23-Dec-17 09:49 37.803190 -118.811883 31 10987ft 194kts
23-Dec-17 09:50 37.822535 -118.762049 139 10997ft 176kts
23-Dec-17 09:51 37.792729 -118.710798 115 11679ft 220kts
23-Dec-17 09:52 37.763673 -118.656530 149 12117ft 173kts
23-Dec-17 09:53 37.725998 -118.611092 146 11643ft 195kts
23-Dec-17 09:54 37.689780 -118.566148 144 11143ft 171kts
23-Dec-17 09:55 37.658074 -118.526929 176 10934ft 137kts
23-Dec-17 09:56 37.634805 -118.546329 240 10991ft 97kts
23-Dec-17 09:57 37.626568 -118.583969 260 10953ft 128kts
23-Dec-17 09:58 37.620618 -118.635021 260 10138ft 161kts
23-Dec-17 09:59 37.613877 -118.693267 260 9171ft 167kts
23-Dec-17 10:00 37.616660 -118.749898 271 8291ft 156kts
23-Dec-17 10:01 37.619441 -118.800488 270 7513ft 134kts
23-Dec-17 10:02 37.622558 -118.832373 275 7142ft 82kts
23-Dec-17 10:03 37.626002 -118.842174 22 7132ft 10kts
23-Dec-17 10:04 37.626426 -118.841714 112 7132ft 0kts
23-Dec-17 10:05 37.626426 -118.841714 112 7132ft 0kts
23-Dec-17 10:06 37.626426 -118.841714 112 7132ft 0kts
23-Dec-17 10:07 37.626426 -118.841714 112 7132ft 0kts
23-Dec-17 10:08 37.626426 -118.841714 112 7132ft 0kts
23-Dec-17 10:09 37.626426 -118.841714 112 7132ft 0kts
23-Dec-17 10:10 37.626426 -118.841714 112 7132ft 0kts
23-Dec-17 10:11 37.626426 -118.841714 112 7132ft 0kts
23-Dec-17 10:12 37.626426 -118.841714 112 7132ft 0kts
23-Dec-17 10:13 37.626426 -118.841714 112 7132ft 0kts
23-Dec-17 10:14 37.626426 -118.841714 112 7132ft 0kts
23-Dec-17 10:15 37.626426 -118.841714 112 7132ft 0kts
23-Dec-17 10:16 37.626426 -118.841714 112 7132ft 0kts
23-Dec-17 10:17 37.626426 -118.841714 112 7132ft 0kts
23-Dec-17 10:18 37.626426 -118.841714 112 7132ft 0kts
23-Dec-17 10:19 37.626426 -118.841714 112 7132ft 0kts
23-Dec-17 10:20 37.626426 -118.841714 112 7132ft 0kts
23-Dec-17 10:21 37.626426 -118.841714 112 7132ft 0kts
23-Dec-17 10:22 37.626426 -118.841714 112 7132ft 0kts
23-Dec-17 10:23 37.626426 -118.841714 112 7132ft 0kts
23-Dec-17 10:24 37.626426 -118.841714 112 7132ft 0kts
23-Dec-17 10:25 37.626425 -118.841708 112 7132ft 0kts
23-Dec-17 10:26 37.626420 -118.841694 110 7132ft 0kts
23-Dec-17 10:27 37.626325 -118.841602 187 7132ft 5kts
23-Dec-17 10:28 37.626183 -118.843771 288 7132ft 7kts
23-Dec-17 10:29 37.626733 -118.845966 289 7132ft 6kts
23-Dec-17 10:30 37.627391 -118.848364 287 7132ft 8kts
23-Dec-17 10:31 37.626625 -118.848206 107 7132ft 47kts
23-Dec-17 10:32 37.611409 -118.803489 166 8267ft 161kts
23-Dec-17 10:33 37.571848 -118.813511 189 11381ft 144kts
23-Dec-17 10:34 37.528118 -118.798797 172 13412ft 191kts
23-Dec-17 10:35 37.477661 -118.821260 225 14425ft 217kts
23-Dec-17 10:36 37.447514 -118.887390 252 15451ft 216kts
23-Dec-17 10:37 37.437167 -118.958846 265 16387ft 204kts
23-Dec-17 10:38 37.425380 -119.029734 227 16508ft 232kts
23-Dec-17 10:39 37.354667 -119.023699 171 16514ft 281kts
23-Dec-17 10:40 37.279561 -118.993802 171 16519ft 283kts
23-Dec-17 10:41 37.207019 -118.994085 209 16527ft 252kts
23-Dec-17 10:42 37.144721 -119.032182 215 16534ft 249kts
23-Dec-17 10:43 37.083361 -119.071801 215 16545ft 246kts
23-Dec-17 10:44 37.022744 -119.110859 215 16557ft 244kts
23-Dec-17 10:45 36.962141 -119.149831 215 16564ft 244kts
23-Dec-17 10:46 36.901726 -119.188613 215 16571ft 244kts
23-Dec-17 10:47 36.841312 -119.227321 215 16576ft 244kts
23-Dec-17 10:48 36.781115 -119.265742 215 16525ft 229kts
23-Dec-17 10:49 36.724225 -119.302148 215 15592ft 232kts
23-Dec-17 10:50 36.666188 -119.339155 214 14594ft 236kts
23-Dec-17 10:51 36.607259 -119.376642 214 13592ft 238kts
23-Dec-17 10:52 36.548073 -119.414220 214 12689ft 237kts
23-Dec-17 10:53 36.489613 -119.451428 214 12584ft 237kts
23-Dec-17 10:54 36.430489 -119.488735 213 12585ft 240kts
23-Dec-17 10:55 36.370953 -119.526348 213 12585ft 241kts
23-Dec-17 10:56 36.311014 -119.564110 213 12589ft 241kts
23-Dec-17 10:57 36.251242 -119.601788 213 12589ft 241kts
23-Dec-17 10:58 36.191314 -119.639429 213 12590ft 242kts
23-Dec-17 10:59 36.131106 -119.677233 213 12590ft 242kts
23-Dec-17 11:00 36.070974 -119.714928 213 12591ft 242kts
23-Dec-17 11:01 36.010535 -119.752732 213 12592ft 243kts
23-Dec-17 11:02 35.950172 -119.790355 213 12593ft 243kts
23-Dec-17 11:03 35.889715 -119.828009 213 12595ft 244kts
23-Dec-17 11:04 35.829018 -119.865736 213 12594ft 243kts
23-Dec-17 11:05 35.767000 -119.904360 212 11593ft 255kts
23-Dec-17 11:06 35.702825 -119.944137 210 10193ft 260kts
23-Dec-17 11:07 35.640395 -119.988373 229 8734ft 257kts
23-Dec-17 11:08 35.598126 -120.058547 233 7241ft 254kts
23-Dec-17 11:09 35.555768 -120.127680 233 5738ft 251kts
23-Dec-17 11:10 35.516157 -120.192100 233 4618ft 210kts
23-Dec-17 11:11 35.481771 -120.247958 233 3643ft 193kts
23-Dec-17 11:12 35.447788 -120.291403 202 3625ft 171kts
23-Dec-17 11:13 35.403272 -120.309632 202 3624ft 167kts
23-Dec-17 11:14 35.356370 -120.331221 201 4202ft 213kts
23-Dec-17 11:15 35.295826 -120.359425 202 3634ft 232kts
23-Dec-17 11:16 35.239382 -120.385672 202 4305ft 215kts
23-Dec-17 11:17 35.182420 -120.412139 202 3591ft 216kts
23-Dec-17 11:18 35.144942 -120.458920 264 2814ft 190kts
23-Dec-17 11:19 35.157287 -120.502758 305 2447ft 103kts
23-Dec-17 11:20 35.173084 -120.529389 303 1970ft 100kts
23-Dec-17 11:21 35.193766 -120.564572 304 1814ft 139kts
23-Dec-17 11:22 35.214914 -120.601624 304 964ft 117kts
23-Dec-17 11:23 35.230510 -120.629087 302 315ft 93kts
23-Dec-17 11:24 35.239276 -120.644325 331 216ft 12kts
23-Dec-17 11:25 35.239975 -120.643836 114 216ft 7kts
23-Dec-17 11:26 35.238344 -120.640914 124 216ft 10kts
23-Dec-17 11:27 35.238273 -120.639103 287 216ft 4kts
23-Dec-17 11:28 35.238275 -120.639137 265 216ft 0kts
23-Dec-17 11:29 35.238275 -120.639137 265 216ft 0kts
23-Dec-17 11:30 35.238275 -120.639137 265 216ft 0kts
23-Dec-17 11:31 35.238275 -120.639137 265 216ft 0kts
23-Dec-17 11:32 35.238275 -120.639137 265 216ft 0kts
23-Dec-17 11:33 35.238275 -120.639137 265 216ft 0kts
23-Dec-17 11:34 35.238275 -120.639137 265 216ft 0kts
23-Dec-17 11:35 35.238275 -120.639137 265 216ft 0kts
23-Dec-17 11:36 35.238275 -120.639137 265 216ft 0kts
23-Dec-17 11:37 35.238275 -120.639137 265 216ft 0kts
23-Dec-17 11:38 35.238275 -120.639137 265 216ft 0kts
23-Dec-17 11:39 35.238275 -120.639137 265 216ft 0kts

Navigation Log

Ident Type
Flight plan parsing failed, navigation log unavailable